createdAt,value
2018-02-23T00:03:32.822Z,-0.41
2018-02-23T00:13:31.040Z,-0.48
2018-02-23T00:23:31.308Z,-0.50
2018-02-23T00:33:30.222Z,-0.62
2018-02-23T00:43:31.254Z,-0.58
2018-02-23T00:53:30.268Z,-0.68
2018-02-23T01:03:29.068Z,-0.51
2018-02-23T01:13:27.919Z,-0.53
2018-02-23T01:23:26.036Z,-0.61
2018-02-23T01:33:24.818Z,-0.65
2018-02-23T01:43:25.451Z,-0.76
2018-02-23T01:53:27.677Z,-0.62
2018-02-23T02:03:27.360Z,-0.48
2018-02-23T02:13:26.007Z,-0.43
2018-02-23T02:23:27.156Z,-0.51
2018-02-23T02:33:27.985Z,-0.58
2018-02-23T02:43:30.492Z,-0.30
2018-02-23T02:53:31.411Z,-0.44
2018-02-23T03:03:30.775Z,-0.65
2018-02-23T03:13:32.807Z,-0.62
2018-02-23T03:23:34.223Z,-0.46
2018-02-23T03:33:32.985Z,-0.48
2018-02-23T03:43:36.278Z,-0.40
2018-02-23T03:53:36.865Z,-0.59
2018-02-23T04:03:35.427Z,-0.56
2018-02-23T04:13:34.412Z,-0.54
2018-02-23T04:23:39.120Z,-0.47
2018-02-23T04:33:38.736Z,-0.54
2018-02-23T04:43:39.493Z,-0.44
2018-02-23T04:53:41.008Z,-0.37
2018-02-23T05:03:42.150Z,-0.41
2018-02-23T05:13:41.876Z,-0.26
2018-02-23T05:23:42.684Z,-0.44
2018-02-23T05:33:43.652Z,-0.53
2018-02-23T05:43:42.765Z,-0.46
2018-02-23T05:53:43.334Z,-0.44
2018-02-23T06:03:44.356Z,-0.32
2018-02-23T06:13:41.261Z,-0.40
2018-02-23T06:23:42.436Z,-0.12
2018-02-23T06:33:42.424Z,-0.25
2018-02-23T06:43:41.339Z,0.03
2018-02-23T06:53:41.453Z,0.01
2018-02-23T07:03:42.330Z,0.21
2018-02-23T07:13:41.104Z,0.31
2018-02-23T07:23:32.744Z,0.17
2018-02-23T07:33:28.204Z,0.29
2018-02-23T07:43:23.822Z,0.27
2018-02-23T07:53:18.833Z,0.45
2018-02-23T08:03:16.480Z,0.40
2018-02-23T08:13:11.328Z,0.82
2018-02-23T08:23:06.702Z,0.90
2018-02-23T08:33:05.416Z,0.93
2018-02-23T08:43:01.090Z,1.10
2018-02-23T08:52:53.141Z,1.02
2018-02-23T09:02:49.774Z,0.80
2018-02-23T09:12:43.198Z,0.90
2018-02-23T09:22:42.280Z,2.03
2018-02-23T09:33:19.362Z,1.82
2018-02-23T09:43:16.199Z,2.98
2018-02-23T09:53:13.639Z,2.56
2018-02-23T10:03:11.205Z,2.62
2018-02-23T10:13:06.741Z,2.56
2018-02-23T10:23:03.244Z,2.39
2018-02-23T10:32:57.989Z,2.62
2018-02-23T10:42:53.404Z,2.63
2018-02-23T10:52:46.132Z,2.80
2018-02-23T11:02:43.363Z,2.89
2018-02-23T11:12:37.073Z,2.81
2018-02-23T11:22:31.823Z,3.34
2018-02-23T11:32:28.337Z,2.93
2018-02-23T11:42:27.202Z,3.10
2018-02-23T11:52:22.775Z,3.35
2018-02-23T12:02:20.967Z,2.80
2018-02-23T12:12:19.421Z,2.48
2018-02-23T12:22:18.986Z,3.21
2018-02-23T12:32:18.607Z,3.13
2018-02-23T12:42:12.115Z,3.22
2018-02-23T12:52:06.031Z,2.85
2018-02-23T13:01:56.898Z,2.93
2018-02-23T13:11:50.028Z,2.42
2018-02-23T13:21:39.674Z,2.74
2018-02-23T13:31:31.212Z,2.52
2018-02-23T13:41:26.114Z,2.42
2018-02-23T13:51:19.667Z,2.19
2018-02-23T14:01:14.228Z,2.21
2018-02-23T14:11:12.366Z,2.01
2018-02-23T14:21:07.988Z,1.80
2018-02-23T14:31:07.675Z,1.90
2018-02-23T14:41:01.574Z,1.79
2018-02-23T14:50:59.474Z,1.92
2018-02-23T15:00:57.680Z,1.83
2018-02-23T15:10:56.808Z,1.91
2018-02-23T15:20:51.266Z,1.72
2018-02-23T15:30:47.478Z,1.83
2018-02-23T15:40:44.221Z,1.84
2018-02-23T15:50:39.312Z,1.91
2018-02-23T16:00:38.286Z,1.66
2018-02-23T16:10:33.230Z,1.58
2018-02-23T16:20:29.930Z,1.47
2018-02-23T16:30:27.010Z,1.56
2018-02-23T16:40:24.865Z,1.36
2018-02-23T16:50:11.972Z,1.46
2018-02-23T17:00:10.904Z,1.44
2018-02-23T17:10:03.454Z,1.36
2018-02-23T17:20:04.147Z,1.46
2018-02-23T17:30:03.250Z,1.30
2018-02-23T17:39:56.558Z,1.28
2018-02-23T17:49:48.617Z,1.37
2018-02-23T17:59:45.176Z,1.25
2018-02-23T18:09:33.587Z,1.25
2018-02-23T18:19:26.617Z,1.29
2018-02-23T18:29:24.689Z,1.36
2018-02-23T18:39:17.872Z,1.08
2018-02-23T18:49:05.534Z,1.19
2018-02-23T18:59:02.490Z,1.19
2018-02-23T19:08:57.708Z,1.18
2018-02-23T19:18:56.650Z,1.04
2018-02-23T19:28:53.179Z,1.15
2018-02-23T19:38:46.898Z,1.10
2018-02-23T19:48:44.593Z,1.07
2018-02-23T19:58:39.237Z,1.08
2018-02-23T20:08:33.784Z,1.05
2018-02-23T20:18:26.232Z,1.10
2018-02-23T20:28:23.846Z,1.11
2018-02-23T20:38:22.865Z,1.11
2018-02-23T20:48:16.277Z,1.02
2018-02-23T20:58:13.761Z,1.15
2018-02-23T21:08:11.001Z,1.11
2018-02-23T21:18:09.373Z,0.94
2018-02-23T21:28:08.444Z,1.00
2018-02-23T21:38:07.193Z,1.01
2018-02-23T21:48:06.746Z,0.90
2018-02-23T21:58:06.811Z,1.02
2018-02-23T22:08:04.147Z,0.82
2018-02-23T22:18:03.712Z,0.86
2018-02-23T22:28:03.048Z,0.89
2018-02-23T22:38:00.151Z,0.82
2018-02-23T22:48:01.427Z,0.82
2018-02-23T22:58:03.065Z,0.98
2018-02-23T23:07:59.997Z,0.82
2018-02-23T23:18:00.044Z,0.82
2018-02-23T23:28:01.402Z,0.75
2018-02-23T23:38:00.513Z,0.82
2018-02-23T23:47:59.646Z,0.84
2018-02-23T23:57:57.023Z,0.79
